Observation data for Plains on 11/21/2020      Previous  Date       Current Mesonet Observations  Soil Data  Daily Summary Page  Observations in Plain Language
KPPS 210600Z 05008KT 11/02 A303 RMK A01 T01100023  RH  056%=      5-min Rain = 0
KPPS 210605Z 05008KT 11/02 A303 RMK A01 T01100024  RH  056%=      5-min Rain = 0
KPPS 210610Z 06008KT 11/03 A303 RMK A01 T01110025  RH  056%=      5-min Rain = 0
KPPS 210615Z 06008KT 11/03 A303 RMK A01 T01100026  RH  057%=      5-min Rain = 0
KPPS 210620Z 05008KT 11/03 A303 RMK A01 T01100026  RH  057%=      5-min Rain = 0
KPPS 210625Z 05007KT 11/03 A303 RMK A01 T01090026  RH  058%=      5-min Rain = 0
KPPS 210630Z 03006KT 11/03 A303 RMK A01 T01080026  RH  058%=      5-min Rain = 0
KPPS 210635Z 03006KT 11/03 A303 RMK A01 T01070025  RH  057%=      5-min Rain = 0
KPPS 210640Z 02007KT 10/02 A303 RMK A01 T01040024  RH  059%=      5-min Rain = 0
KPPS 210645Z 02007KT 10/02 A303 RMK A01 T01020024  RH  060%=      5-min Rain = 0
KPPS 210650Z 02007KT 10/03 A303 RMK A01 T01010025  RH  060%=      5-min Rain = 0
KPPS 210655Z 02007KT 10/03 A303 RMK A01 T01020025  RH  060%=      5-min Rain = 0
KPPS 210700Z 01008KT 10/03 A3031 RMK A01 T01030026  RH  060%=      5-min Rain = 0
KPPS 210705Z 01008KT 10/03 A3031 RMK A01 T01040027  RH  060%=      5-min Rain = 0
KPPS 210710Z 01008KT 11/03 A3031 RMK A01 T01050028  RH  060%=      5-min Rain = 0
KPPS 210715Z 01008KT 11/03 A3031 RMK A01 T01060028  RH  060%=      5-min Rain = 0
KPPS 210720Z 01007KT 11/03 A3031 RMK A01 T01060028  RH  060%=      5-min Rain = 0
KPPS 210725Z 01007KT 10/03 A3031 RMK A01 T01040026  RH  060%=      5-min Rain = 0
KPPS 210730Z 02006KT 10/03 A3031 RMK A01 T01030027  RH  060%=      5-min Rain = 0
KPPS 210735Z 03006KT 10/03 A3031 RMK A01 T01040028  RH  060%=      5-min Rain = 0
KPPS 210740Z 03007KT 11/03 A3031 RMK A01 T01060029  RH  060%=      5-min Rain = 0
KPPS 210745Z 03007KT 10/03 A3031 RMK A01 T01040028  RH  060%=      5-min Rain = 0
KPPS 210750Z 03007KT 10/03 A3031 RMK A01 T01040028  RH  060%=      5-min Rain = 0
KPPS 210755Z 04007KT 10/03 A3031 RMK A01 T01020028  RH  061%=      5-min Rain = 0
KPPS 210800Z 03007KT 10/03 A3031 RMK A01 T01020029  RH  061%=      5-min Rain = 0
KPPS 210805Z 04007KT 10/03 A303 RMK A01 T01010028  RH  062%=      5-min Rain = 0
KPPS 210810Z 05007KT 10/03 A303 RMK A01 T00970028  RH  063%=      5-min Rain = 0
KPPS 210815Z 03005KT 10/03 A303 RMK A01 T00980029  RH  063%=      5-min Rain = 0
KPPS 210820Z 04005KT 10/03 A303 RMK A01 T00980029  RH  063%=      5-min Rain = 0
KPPS 210825Z 03005KT 10/03 A303 RMK A01 T00970029  RH  064%=      5-min Rain = 0
KPPS 210830Z 02005KT 10/03 A303 RMK A01 T00960029  RH  064%=      5-min Rain = 0
KPPS 210835Z 03007KT 09/03 A303 RMK A01 T00940029  RH  065%=      5-min Rain = 0
KPPS 210840Z 03007KT 09/03 A303 RMK A01 T00940029  RH  065%=      5-min Rain = 0
KPPS 210845Z 03006KT 09/03 A303 RMK A01 T00930027  RH  065%=      5-min Rain = 0
KPPS 210850Z 02006KT 09/03 A303 RMK A01 T00920027  RH  065%=      5-min Rain = 0
KPPS 210855Z 02006KT 09/03 A303 RMK A01 T00900026  RH  065%=      5-min Rain = 0
KPPS 210900Z 01006KT 09/02 A303 RMK A01 T00880024  RH  065%=      5-min Rain = 0
KPPS 210905Z 01006KT 09/02 A303 RMK A01 T00850022  RH  066%=      5-min Rain = 0
KPPS 210910Z 01006KT 08/02 A303 RMK A01 T00840022  RH  066%=      5-min Rain = 0
KPPS 210915Z 01005KT 08/02 A303 RMK A01 T00840022  RH  066%=      5-min Rain = 0
KPPS 210920Z 01006KT 08/02 A303 RMK A01 T00830022  RH  066%=      5-min Rain = 0
KPPS 210925Z 02006KT 08/02 A303 RMK A01 T00840023  RH  067%=      5-min Rain = 0
KPPS 210930Z 03008KT 09/02 A303 RMK A01 T00850024  RH  067%=      5-min Rain = 0
KPPS 210935Z 03008KT 09/03 A303 RMK A01 T00850025  RH  067%=      5-min Rain = 0
KPPS 210940Z 03007KT 08/03 A303 RMK A01 T00840025  RH  067%=      5-min Rain = 0
KPPS 210945Z 03007KT 08/03 A303 RMK A01 T00830025  RH  068%=      5-min Rain = 0
KPPS 210950Z 03007KT 08/03 A303 RMK A01 T00830026  RH  068%=      5-min Rain = 0
KPPS 210955Z 03008KT 08/03 A303 RMK A01 T00820026  RH  069%=      5-min Rain = 0
KPPS 211000Z 02007KT 08/03 A303 RMK A01 T00820026  RH  069%=      5-min Rain = 0
KPPS 211005Z 02007KT 08/03 A303 RMK A01 T00800026  RH  070%=      5-min Rain = 0
KPPS 211010Z 02007KT 08/03 A303 RMK A01 T00790027  RH  071%=      5-min Rain = 0
KPPS 211015Z 03008KT 08/03 A303 RMK A01 T00790027  RH  071%=      5-min Rain = 0
KPPS 211020Z 03007KT 08/03 A303 RMK A01 T00790028  RH  071%=      5-min Rain = 0
KPPS 211025Z 03007KT 08/03 A303 RMK A01 T00780028  RH  072%=      5-min Rain = 0
KPPS 211030Z 03007KT 08/03 A303 RMK A01 T00780028  RH  072%=      5-min Rain = 0
KPPS 211035Z 03007KT 08/03 A303 RMK A01 T00760028  RH  073%=      5-min Rain = 0
KPPS 211040Z 03007KT 08/03 A303 RMK A01 T00760028  RH  073%=      5-min Rain = 0
KPPS 211045Z 03006KT 08/03 A303 RMK A01 T00750028  RH  074%=      5-min Rain = 0
KPPS 211050Z 03007KT 07/03 A303 RMK A01 T00740028  RH  074%=      5-min Rain = 0
KPPS 211055Z 03007KT 07/03 A303 RMK A01 T00740028  RH  074%=      5-min Rain = 0
KPPS 211100Z 04007KT 07/03 A303 RMK A01 T00730028  RH  074%=      5-min Rain = 0
KPPS 211105Z 04008KT 07/03 A303 RMK A01 T00710028  RH  075%=      5-min Rain = 0
KPPS 211110Z 04007KT 07/03 A303 RMK A01 T00710029  RH  076%=      5-min Rain = 0
KPPS 211115Z 04007KT 07/03 A303 RMK A01 T00720029  RH  076%=      5-min Rain = 0
KPPS 211120Z 04008KT 07/03 A303 RMK A01 T00710030  RH  076%=      5-min Rain = 0
KPPS 211125Z 04008KT 07/03 A303 RMK A01 T00710030  RH  076%=      5-min Rain = 0
KPPS 211130Z 04009KT 07/03 A3029 RMK A01 T00700030  RH  077%=      5-min Rain = 0
KPPS 211135Z 05009KT 07/03 A303 RMK A01 T00690030  RH  078%=      5-min Rain = 0
KPPS 211140Z 05009KT 07/03 A303 RMK A01 T00690031  RH  078%=      5-min Rain = 0
KPPS 211145Z 05009KT 07/03 A303 RMK A01 T00690032  RH  079%=      5-min Rain = 0
KPPS 211150Z 04009KT 07/03 A303 RMK A01 T00690034  RH  080%=      5-min Rain = 0
KPPS 211155Z 05009KT 07/04 A303 RMK A01 T00690035  RH  080%=      5-min Rain = 0
KPPS 211200Z 05009KT 07/04 A303 RMK A01 T00680035  RH  081%=      5-min Rain = 0
KPPS 211205Z 05009KT 07/04 A303 RMK A01 T00680036  RH  082%=      5-min Rain = 0
KPPS 211210Z 04009KT 07/04 A303 RMK A01 T00680037  RH  082%=      5-min Rain = 0
KPPS 211215Z 04008KT 07/04 A303 RMK A01 T00680038  RH  083%=      5-min Rain = 0
KPPS 211220Z 03007KT 07/04 A3031 RMK A01 T00680038  RH  083%=      5-min Rain = 0
KPPS 211225Z 03007KT 07/04 A3031 RMK A01 T00680040  RH  083%=      5-min Rain = 0
KPPS 211230Z 03007KT 07/04 A3031 RMK A01 T00680040  RH  084%=      5-min Rain = 0
KPPS 211235Z 02007KT 07/04 A3032 RMK A01 T00670041  RH  085%=      5-min Rain = 0
KPPS 211240Z 02007KT 07/04 A3032 RMK A01 T00680043  RH  086%=      5-min Rain = 0
KPPS 211245Z 03008KT 07/04 A3032 RMK A01 T00680044  RH  086%=      5-min Rain = 0
KPPS 211250Z 04007KT 07/04 A3032 RMK A01 T00680044  RH  087%=      5-min Rain = 0
KPPS 211255Z 03007KT 07/04 A3032 RMK A01 T00670044  RH  087%=      5-min Rain = 0
KPPS 211300Z 03007KT 07/05 A3032 RMK A01 T00670045  RH  088%=      5-min Rain = 0
KPPS 211305Z 03007KT 07/05 A3032 RMK A01 T00660045  RH  089%=      5-min Rain = 0
KPPS 211310Z 03007KT 07/05 A3032 RMK A01 T00660046  RH  089%=      5-min Rain = 0
KPPS 211315Z 03007KT 07/05 A3032 RMK A01 T00650046  RH  089%=      5-min Rain = 0
KPPS 211320Z 03007KT 07/05 A3032 RMK A01 T00650047  RH  090%=      5-min Rain = 0
KPPS 211325Z 03007KT 07/05 A3032 RMK A01 T00650047  RH  090%=      5-min Rain = 0
KPPS 211330Z 03006KT 06/05 A3032 RMK A01 T00640046  RH  090%=      5-min Rain = 0
KPPS 211335Z 03007KT 06/05 A3032 RMK A01 T00640046  RH  090%=      5-min Rain = 0
KPPS 211340Z 03007KT 06/05 A3033 RMK A01 T00630045  RH  090%=      5-min Rain = 0
KPPS 211345Z 02007KT 06/05 A3033 RMK A01 T00630045  RH  090%=      5-min Rain = 0
KPPS 211350Z 03007KT 06/05 A3033 RMK A01 T00630045  RH  090%=      5-min Rain = 0
KPPS 211355Z 03007KT 06/05 A3033 RMK A01 T00630045  RH  090%=      5-min Rain = 0
KPPS 211400Z 04007KT 06/05 A3033 RMK A01 T00640046  RH  090%=      5-min Rain = 0
KPPS 211405Z 04007KT 06/05 A3033 RMK A01 T00640046  RH  090%=      5-min Rain = 0
KPPS 211410Z 04007KT 07/05 A3033 RMK A01 T00650047  RH  090%=      5-min Rain = 0
KPPS 211415Z 04007KT 07/05 A3033 RMK A01 T00680049  RH  090%=      5-min Rain = 0
KPPS 211420Z 05007KT 07/05 A3033 RMK A01 T00710051  RH  089%=      5-min Rain = 0
KPPS 211425Z 05008KT 07/05 A3032 RMK A01 T00740052  RH  088%=      5-min Rain = 0
KPPS 211430Z 05007KT 08/05 A3033 RMK A01 T00750053  RH  088%=      5-min Rain = 0
KPPS 211435Z 06007KT 08/06 A3033 RMK A01 T00790055  RH  087%=      5-min Rain = 0
KPPS 211440Z 05008KT 08/06 A3033 RMK A01 T00820058  RH  087%=      5-min Rain = 0
KPPS 211445Z 06008KT 09/06 A3033 RMK A01 T00860061  RH  086%=      5-min Rain = 0
KPPS 211450Z 06009KT 09/06 A3033 RMK A01 T00890063  RH  086%=      5-min Rain = 0
KPPS 211455Z 07010KT 09/07 A3033 RMK A01 T00940066  RH  085%=      5-min Rain = 0
KPPS 211500Z 07010KT 10/07 A3032 RMK A01 T00970068  RH  084%=      5-min Rain = 0
KPPS 211505Z 08010KT 10/07 A3032 RMK A01 T00990068  RH  083%=      5-min Rain = 0
KPPS 211510Z 07010KT 10/07 A3032 RMK A01 T01010069  RH  083%=      5-min Rain = 0
KPPS 211515Z 08009KT 10/07 A3033 RMK A01 T01030070  RH  082%=      5-min Rain = 0
KPPS 211520Z 08009KT 11/07 A3033 RMK A01 T01080073  RH  081%=      5-min Rain = 0
KPPS 211525Z 08010KT 11/08 A3033 RMK A01 T01110075  RH  081%=      5-min Rain = 0
KPPS 211530Z 09010KT 11/08 A3033 RMK A01 T01130076  RH  080%=      5-min Rain = 0
KPPS 211535Z 09009KT 12/08 A3033 RMK A01 T01150076  RH  079%=      5-min Rain = 0
KPPS 211540Z 09009KT 12/08 A3033 RMK A01 T01170077  RH  079%=      5-min Rain = 0
KPPS 211545Z 09010KT 12/08 A3032 RMK A01 T01200078  RH  077%=      5-min Rain = 0
KPPS 211550Z 09010KT 12/08 A3032 RMK A01 T01240080  RH  076%=      5-min Rain = 0
KPPS 211555Z 10010KT 13/08 A3032 RMK A01 T01280082  RH  076%=      5-min Rain = 0
KPPS 211600Z 11010KT 13/08 A3032 RMK A01 T01310083  RH  074%=      5-min Rain = 0
KPPS 211605Z 11011G17KT 13/08 A3032 RMK A01 T01340083  RH  073%=      5-min Rain = 0
KPPS 211610Z 12011KT 14/08 A3032 RMK A01 T01350084  RH  073%=      5-min Rain = 0
KPPS 211615Z 12010KT 14/08 A3032 RMK A01 T01380083  RH  072%=      5-min Rain = 0
KPPS 211620Z 12010KT 14/09 A3032 RMK A01 T01400085  RH  072%=      5-min Rain = 0
KPPS 211625Z 12010KT 14/09 A3032 RMK A01 T01410085  RH  071%=      5-min Rain = 0
KPPS 211630Z 12010KT 14/09 A3032 RMK A01 T01420085  RH  071%=      5-min Rain = 0
KPPS 211635Z 12011KT 15/09 A3032 RMK A01 T01460086  RH  069%=      5-min Rain = 0
KPPS 211640Z 12011KT 15/09 A3032 RMK A01 T01450086  RH  070%=      5-min Rain = 0
KPPS 211645Z 13011KT 15/09 A3032 RMK A01 T01490087  RH  069%=      5-min Rain = 0
KPPS 211650Z 12010KT 15/09 A3032 RMK A01 T01520087  RH  067%=      5-min Rain = 0
KPPS 211655Z 12010KT 15/09 A3032 RMK A01 T01510087  RH  068%=      5-min Rain = 0
KPPS 211700Z 13010KT 15/09 A3032 RMK A01 T01540089  RH  067%=      5-min Rain = 0
KPPS 211705Z 13010KT 16/09 A3032 RMK A01 T01570089  RH  066%=      5-min Rain = 0
KPPS 211710Z 13010KT 16/09 A3032 RMK A01 T01570090  RH  066%=      5-min Rain = 0
KPPS 211715Z 13011KT 16/09 A3032 RMK A01 T01600091  RH  066%=      5-min Rain = 0
KPPS 211720Z 13010KT 16/09 A3032 RMK A01 T01610091  RH  065%=      5-min Rain = 0
KPPS 211725Z 12010KT 16/09 A3031 RMK A01 T01630091  RH  064%=      5-min Rain = 0
KPPS 211730Z 13010KT 17/09 A3031 RMK A01 T01660092  RH  063%=      5-min Rain = 0
KPPS 211735Z 13009KT 17/09 A3031 RMK A01 T01660092  RH  063%=      5-min Rain = 0
KPPS 211740Z 13009KT 17/09 A3031 RMK A01 T01680092  RH  063%=      5-min Rain = 0
KPPS 211745Z 13008KT 17/09 A3031 RMK A01 T01690091  RH  062%=      5-min Rain = 0
KPPS 211750Z 13008KT 17/09 A3031 RMK A01 T01680092  RH  063%=      5-min Rain = 0
KPPS 211755Z 12007KT 17/09 A303 RMK A01 T01700091  RH  061%=      5-min Rain = 0
KPPS 211800Z 13009KT 17/09 A303 RMK A01 T01730092  RH  061%=      5-min Rain = 0
KPPS 211805Z 15009G15KT 18/09 A303 RMK A01 T01760093  RH  060%=      5-min Rain = 0
KPPS 211810Z 14008KT 17/09 A303 RMK A01 T01740092  RH  060%=      5-min Rain = 0
KPPS 211815Z 13006G11KT 17/09 A303 RMK A01 T01740092  RH  060%=      5-min Rain = 0
KPPS 211820Z 13008KT 18/09 A3029 RMK A01 T01760092  RH  060%=      5-min Rain = 0
KPPS 211825Z 16007KT 18/09 A3029 RMK A01 T01780093  RH  059%=      5-min Rain = 0
KPPS 211830Z 15008KT 18/09 A3028 RMK A01 T01790093  RH  059%=      5-min Rain = 0
KPPS 211835Z 14005KT 18/09 A3028 RMK A01 T01800093  RH  058%=      5-min Rain = 0
KPPS 211840Z 13008KT 18/09 A3028 RMK A01 T01810093  RH  058%=      5-min Rain = 0
KPPS 211845Z 12006G11KT 18/09 A3028 RMK A01 T01830093  RH  057%=      5-min Rain = 0
KPPS 211850Z 11007G12KT 18/09 A3027 RMK A01 T01830093  RH  058%=      5-min Rain = 0
KPPS 211855Z 13007KT 18/09 A3027 RMK A01 T01840093  RH  057%=      5-min Rain = 0
KPPS 211900Z 14006KT 19/09 A3026 RMK A01 T01850093  RH  057%=      5-min Rain = 0
KPPS 211905Z 13008KT 19/09 A3026 RMK A01 T01880093  RH  056%=      5-min Rain = 0
KPPS 211910Z 13008KT 19/09 A3026 RMK A01 T01850093  RH  057%=      5-min Rain = 0
KPPS 211915Z 14008KT 19/09 A3025 RMK A01 T01890094  RH  056%=      5-min Rain = 0
KPPS 211920Z 12008KT 19/09 A3025 RMK A01 T01890094  RH  056%=      5-min Rain = 0
KPPS 211925Z 11008KT 19/09 A3024 RMK A01 T01870094  RH  056%=      5-min Rain = 0
KPPS 211930Z 12009G15KT 19/09 A3024 RMK A01 T01900094  RH  056%=      5-min Rain = 0
KPPS 211935Z 13009KT 19/09 A3024 RMK A01 T01930094  RH  054%=      5-min Rain = 0
KPPS 211940Z 13008KT 19/09 A3024 RMK A01 T01920094  RH  054%=      5-min Rain = 0
KPPS 211945Z 14008KT 19/09 A3023 RMK A01 T01920094  RH  054%=      5-min Rain = 0
KPPS 211950Z 11008G14KT 19/09 A3023 RMK A01 T01900094  RH  055%=      5-min Rain = 0
KPPS 211955Z 15009G14KT 20/09 A3023 RMK A01 T01950094  RH  054%=      5-min Rain = 0
KPPS 212000Z 15007KT 20/09 A3023 RMK A01 T01980094  RH  053%=      5-min Rain = 0
KPPS 212005Z 14009KT 20/09 A3022 RMK A01 T01970094  RH  053%=      5-min Rain = 0
KPPS 212010Z 14006KT 19/09 A3022 RMK A01 T01940093  RH  053%=      5-min Rain = 0
KPPS 212015Z 13009KT 20/10 A3022 RMK A01 T01950095  RH  054%=      5-min Rain = 0
KPPS 212020Z 11010KT 19/09 A3022 RMK A01 T01940094  RH  054%=      5-min Rain = 0
KPPS 212025Z 13010G15KT 20/10 A3022 RMK A01 T01960096  RH  054%=      5-min Rain = 0
KPPS 212030Z 12010G17KT 20/10 A3021 RMK A01 T01950096  RH  054%=      5-min Rain = 0
KPPS 212035Z 13011KT 20/10 A3021 RMK A01 T01970097  RH  054%=      5-min Rain = 0
KPPS 212040Z 13012KT 20/10 A3021 RMK A01 T01960097  RH  055%=      5-min Rain = 0
KPPS 212045Z 13012KT 19/10 A3021 RMK A01 T01930096  RH  055%=      5-min Rain = 0
KPPS 212050Z 13012G18KT 19/10 A302 RMK A01 T01940097  RH  055%=      5-min Rain = 0
KPPS 212055Z 13012KT 19/10 A302 RMK A01 T01940097  RH  055%=      5-min Rain = 0
KPPS 212100Z 14011KT 20/10 A302 RMK A01 T01950098  RH  055%=      5-min Rain = 0
KPPS 212105Z 15011G16KT 20/10 A302 RMK A01 T01970101  RH  056%=      5-min Rain = 0
KPPS 212110Z 13012G17KT 19/10 A302 RMK A01 T01930104  RH  058%=      5-min Rain = 0
KPPS 212115Z 14012G17KT 19/10 A302 RMK A01 T01940104  RH  058%=      5-min Rain = 0
KPPS 212120Z 14012G17KT 20/10 A3019 RMK A01 T01950103  RH  057%=      5-min Rain = 0
KPPS 212125Z 14012G17KT 19/10 A3019 RMK A01 T01940103  RH  058%=      5-min Rain = 0
KPPS 212130Z 15013KT 19/10 A3019 RMK A01 T01940104  RH  058%=      5-min Rain = 0
KPPS 212135Z 14013KT 19/11 A3019 RMK A01 T01940105  RH  058%=      5-min Rain = 0
KPPS 212140Z 15013KT 19/10 A3019 RMK A01 T01940103  RH  058%=      5-min Rain = 0
KPPS 212145Z 15013KT 19/10 A3019 RMK A01 T01930102  RH  057%=      5-min Rain = 0
KPPS 212150Z 14012KT 19/10 A3019 RMK A01 T01920102  RH  058%=      5-min Rain = 0
KPPS 212155Z 15011KT 19/10 A3019 RMK A01 T01920102  RH  058%=      5-min Rain = 0
KPPS 212200Z 15011G16KT 19/10 A3019 RMK A01 T01930102  RH  057%=      5-min Rain = 0
KPPS 212205Z 15012KT 19/10 A3019 RMK A01 T01930102  RH  057%=      5-min Rain = 0
KPPS 212210Z 15011KT 19/10 A3018 RMK A01 T01920102  RH  058%=      5-min Rain = 0
KPPS 212215Z 15010KT 19/10 A3019 RMK A01 T01940103  RH  057%=      5-min Rain = 0
KPPS 212220Z 15011KT 19/10 A3019 RMK A01 T01920103  RH  058%=      5-min Rain = 0
KPPS 212225Z 13012KT 19/10 A3018 RMK A01 T01910104  RH  059%=      5-min Rain = 0
KPPS 212230Z 13013KT 19/10 A3018 RMK A01 T01890104  RH  060%=      5-min Rain = 0
KPPS 212235Z 13012KT 19/10 A3018 RMK A01 T01870104  RH  061%=      5-min Rain = 0
KPPS 212240Z 13011KT 18/10 A3019 RMK A01 T01840103  RH  061%=      5-min Rain = 0
KPPS 212245Z 13012KT 18/10 A3019 RMK A01 T01820103  RH  062%=      5-min Rain = 0
KPPS 212250Z 13011KT 18/10 A3019 RMK A01 T01830103  RH  062%=      5-min Rain = 0
KPPS 212255Z 13011KT 18/10 A3018 RMK A01 T01840104  RH  061%=      5-min Rain = 0
KPPS 212300Z 13011KT 19/10 A3018 RMK A01 T01850104  RH  061%=      5-min Rain = 0
KPPS 212305Z 13010G15KT 19/10 A3018 RMK A01 T01860104  RH  061%=      5-min Rain = 0
KPPS 212310Z 13012KT 18/11 A3018 RMK A01 T01830105  RH  062%=      5-min Rain = 0
KPPS 212315Z 13011KT 18/11 A3018 RMK A01 T01810105  RH  063%=      5-min Rain = 0
KPPS 212320Z 13011KT 18/11 A3018 RMK A01 T01800106  RH  064%=      5-min Rain = 0
KPPS 212325Z 13008KT 18/11 A3018 RMK A01 T01790105  RH  064%=      5-min Rain = 0
KPPS 212330Z 13009KT 18/11 A3018 RMK A01 T01780105  RH  064%=      5-min Rain = 0
KPPS 212335Z 12011KT 18/10 A3018 RMK A01 T01760104  RH  065%=      5-min Rain = 0
KPPS 212340Z 12009KT 17/10 A3018 RMK A01 T01710103  RH  066%=      5-min Rain = 0
KPPS 212345Z 12008KT 17/10 A3018 RMK A01 T01690102  RH  067%=      5-min Rain = 0
KPPS 212350Z 12009KT 17/10 A3018 RMK A01 T01670102  RH  068%=      5-min Rain = 0
KPPS 212355Z 12007KT 17/10 A3018 RMK A01 T01650101  RH  068%=      5-min Rain = 0
KPPS 220000Z 12007KT 16/10 A3018 RMK A01 T01620100  RH  069%=      5-min Rain = 0
KPPS 220005Z 12006KT 16/10 A3018 RMK A01 T01590099  RH  070%=      5-min Rain = 0
KPPS 220010Z 12006KT 16/10 A3018 RMK A01 T01560098  RH  070%=      5-min Rain = 0
KPPS 220015Z 11005KT 16/10 A3018 RMK A01 T01560099  RH  071%=      5-min Rain = 0
KPPS 220020Z 10007KT 16/10 A3018 RMK A01 T01560099  RH  071%=      5-min Rain = 0
KPPS 220025Z 10008KT 15/10 A3018 RMK A01 T01540099  RH  072%=      5-min Rain = 0
KPPS 220030Z 09007KT 15/10 A3018 RMK A01 T01510097  RH  073%=      5-min Rain = 0
KPPS 220035Z 09008KT 15/10 A3018 RMK A01 T01490097  RH  073%=      5-min Rain = 0
KPPS 220040Z 09007KT 15/10 A3018 RMK A01 T01480097  RH  074%=      5-min Rain = 0
KPPS 220045Z 09008KT 15/10 A3018 RMK A01 T01470096  RH  074%=      5-min Rain = 0
KPPS 220050Z 09008KT 14/10 A3018 RMK A01 T01440095  RH  075%=      5-min Rain = 0
KPPS 220055Z 08008KT 14/10 A3018 RMK A01 T01430095  RH  075%=      5-min Rain = 0
KPPS 220100Z 08008KT 14/09 A3018 RMK A01 T01370091  RH  076%=      5-min Rain = 0
KPPS 220105Z 07007KT 13/09 A3019 RMK A01 T01310089  RH  078%=      5-min Rain = 0
KPPS 220110Z 07008KT 13/09 A3019 RMK A01 T01280089  RH  080%=      5-min Rain = 0
KPPS 220115Z 07008KT 13/09 A3019 RMK A01 T01280089  RH  080%=      5-min Rain = 0
KPPS 220120Z 07008KT 12/09 A3019 RMK A01 T01240087  RH  080%=      5-min Rain = 0
KPPS 220125Z 07008KT 12/09 A3019 RMK A01 T01220087  RH  082%=      5-min Rain = 0
KPPS 220130Z 08009KT 12/09 A3019 RMK A01 T01210088  RH  082%=      5-min Rain = 0
KPPS 220135Z 08009KT 13/09 A3019 RMK A01 T01250090  RH  082%=      5-min Rain = 0
KPPS 220140Z 08009KT 13/09 A3019 RMK A01 T01290092  RH  081%=      5-min Rain = 0
KPPS 220145Z 08009KT 13/09 A302 RMK A01 T01300092  RH  080%=      5-min Rain = 0
KPPS 220150Z 08008KT 13/09 A302 RMK A01 T01300092  RH  080%=      5-min Rain = 0
KPPS 220155Z 08008KT 13/09 A302 RMK A01 T01270091  RH  081%=      5-min Rain = 0
KPPS 220200Z 07007KT 12/09 A302 RMK A01 T01240089  RH  082%=      5-min Rain = 0
KPPS 220205Z 07007KT 12/09 A302 RMK A01 T01200087  RH  083%=      5-min Rain = 0
KPPS 220210Z 07008KT 12/09 A302 RMK A01 T01180086  RH  083%=      5-min Rain = 0
KPPS 220215Z 07007KT 12/09 A302 RMK A01 T01150085  RH  084%=      5-min Rain = 0
KPPS 220220Z 08008KT 12/09 A302 RMK A01 T01150087  RH  085%=      5-min Rain = 0
KPPS 220225Z 08008KT 12/09 A302 RMK A01 T01170088  RH  085%=      5-min Rain = 0
KPPS 220230Z 08008KT 12/09 A302 RMK A01 T01170088  RH  085%=      5-min Rain = 0
KPPS 220235Z 08008KT 12/09 A302 RMK A01 T01180089  RH  085%=      5-min Rain = 0
KPPS 220240Z 08008KT 12/09 A302 RMK A01 T01200090  RH  084%=      5-min Rain = 0
KPPS 220245Z 09009KT 12/09 A302 RMK A01 T01220091  RH  084%=      5-min Rain = 0
KPPS 220250Z 09009KT 12/09 A3021 RMK A01 T01220091  RH  084%=      5-min Rain = 0
KPPS 220255Z 08008KT 12/09 A3021 RMK A01 T01220091  RH  084%=      5-min Rain = 0
KPPS 220300Z 09008KT 12/09 A3021 RMK A01 T01210091  RH  084%=      5-min Rain = 0
KPPS 220305Z 10007KT 12/09 A3021 RMK A01 T01230093  RH  085%=      5-min Rain = 0
KPPS 220310Z 11006KT 12/09 A3021 RMK A01 T01170086  RH  084%=      5-min Rain = 0
KPPS 220315Z 11006KT 11/09 A3021 RMK A01 T01130085  RH  086%=      5-min Rain = 0
KPPS 220320Z 11007KT 11/09 A3021 RMK A01 T01120087  RH  087%=      5-min Rain = 0
KPPS 220325Z 11007KT 12/09 A302 RMK A01 T01150090  RH  087%=      5-min Rain = 0
KPPS 220330Z 11007KT 12/09 A302 RMK A01 T01170092  RH  087%=      5-min Rain = 0
KPPS 220335Z 11007KT 12/09 A302 RMK A01 T01180093  RH  087%=      5-min Rain = 0
KPPS 220340Z 11007KT 12/09 A302 RMK A01 T01180093  RH  087%=      5-min Rain = 0
KPPS 220345Z 11006KT 12/09 A302 RMK A01 T01180094  RH  087%=      5-min Rain = 0
KPPS 220350Z 10006KT 12/09 A302 RMK A01 T01180094  RH  088%=      5-min Rain = 0
KPPS 220355Z 10006KT 12/09 A3021 RMK A01 T01170093  RH  088%=      5-min Rain = 0
KPPS 220400Z 10007KT 12/09 A3021 RMK A01 T01170093  RH  088%=      5-min Rain = 0
KPPS 220405Z 11007KT 12/09 A3021 RMK A01 T01170093  RH  088%=      5-min Rain = 0
KPPS 220410Z 11007KT 12/09 A3021 RMK A01 T01180094  RH  088%=      5-min Rain = 0
KPPS 220415Z 10007KT 12/10 A3021 RMK A01 T01200095  RH  088%=      5-min Rain = 0
KPPS 220420Z 10007KT 12/10 A3021 RMK A01 T01230096  RH  086%=      5-min Rain = 0
KPPS 220425Z 10007KT 13/10 A3021 RMK A01 T01260097  RH  085%=      5-min Rain = 0
KPPS 220430Z 10006KT 13/10 A3021 RMK A01 T01280097  RH  084%=      5-min Rain = 0
KPPS 220435Z 10005KT 13/10 A3021 RMK A01 T01300098  RH  084%=      5-min Rain = 0
KPPS 220440Z 11006KT 13/10 A3021 RMK A01 T01310098  RH  083%=      5-min Rain = 0
KPPS 220445Z 12008KT 13/10 A3021 RMK A01 T01320097  RH  082%=      5-min Rain = 0
KPPS 220450Z 13008KT 13/10 A3021 RMK A01 T01320097  RH  082%=      5-min Rain = 0
KPPS 220455Z 13008KT 13/10 A3021 RMK A01 T01330096  RH  081%=      5-min Rain = 0
KPPS 220500Z 13007KT 13/10 A3021 RMK A01 T01320095  RH  081%=      5-min Rain = 0
KPPS 220505Z 13008KT 13/10 A3021 RMK A01 T01310095  RH  081%=      5-min Rain = 0
KPPS 220510Z 13008KT 13/09 A3021 RMK A01 T01300094  RH  081%=      5-min Rain = 0
KPPS 220515Z 14008KT 13/09 A3021 RMK A01 T01280093  RH  081%=      5-min Rain = 0
KPPS 220520Z 14007KT 13/09 A3021 RMK A01 T01260092  RH  082%=      5-min Rain = 0
KPPS 220525Z 14006KT 12/09 A3021 RMK A01 T01230090  RH  083%=      5-min Rain = 0
KPPS 220530Z 14007KT 12/09 A3021 RMK A01 T01210090  RH  084%=      5-min Rain = 0
KPPS 220535Z 14006KT 12/09 A302 RMK A01 T01190089  RH  084%=      5-min Rain = 0
KPPS 220540Z 14006KT 12/09 A302 RMK A01 T01170088  RH  085%=      5-min Rain = 0
KPPS 220545Z 14006KT 12/09 A302 RMK A01 T01170089  RH  086%=      5-min Rain = 0
KPPS 220550Z 14006KT 12/09 A302 RMK A01 T01160089  RH  086%=      5-min Rain = 0
KPPS 220555Z 14005KT 12/09 A302 RMK A01 T01150088  RH  086%=      5-min Rain = 0

Page generated in 0.0311 seconds.